aviador You're here:

CYQA Decoded Metar

MUSKOKA in ON, CANADA
Report Time2018-01-17 09:00:00
UTC Time2018-01-17 09:14:42
Flight Rules vfr VFR
WindCalm
Visibility9999 m
Phenomena:Light Snow
Clouds:N/A
Expected CloudBase > 1,200 ft AGL from Temp-Dew spread
CeilingNone
Temp-21°C (ISA -34)
Dew Point-24°C (77% RH)
AAT-24.7°C
QNH1026 hPa
Density Alt-3,885 ft
Elevation925 ft
Report Wrong Elevation
Raw Report
CYQA 170900Z AUTO 00000KT 9SM -SN CLR M21/M24 A3029 RMK ICG
SLP286=

Extra information for CYQA:More info

Metar Taf Metar & Taf Last 4 Metars F.Rules Stats Wind Profile Meteogram Temp Stats Airport Information Weather charts Add Link Nearby VenuesMetar ALERT Operation Metar Decoded Social comments